메인 페이지
METAR-TAF:

METAR-TAF

공항 :

마하치칼라, 러시아

위도: 42-49-01N, 경도: 047-39-08E, 고도: 4m

현재 날씨관측

예보는 40분 전, 13:00시(UTC)에 발표되었습니다.
북북서16kt
온도 25°C
습도 50%
기압 1017 hPa
시정 10km 이상
구름 보통 , 적란운.

METAR: URML 051300Z 33008MPS 9999 SCT///CB 25/14 Q1017 R32/01//70 TEMPO 33011G17MPS 5000 -TSRA BKN030CB RMK QFE763/1017

시각: 16:40 (13:40 UTC)

예보

예보는 2 시간 40분 전, 11:00시(UTC)에 발표되었습니다.
예보 대상 시간: 05일 12시부터 05일 21시까지 (UTC)
북북서17kt, 순간 최대 풍속 27kt
시정 10km 이상
고도 3000ft 상공 구름 보통, 적란운.
일시적
05일 12시부터 05일 17시까지 (UTC)
북북서21kt, 순간 최대 풍속 33kt
시정: 5000m
고도 3000ft 상공 구름 많음, 적란운.
뇌우, 약한비
일시적
05일 17시부터 05일 21시까지 (UTC)
서북서12kt, 순간 최대 풍속 21kt

TAF: URML 051100Z 0512/0521 33009G14MPS 9999 SCT030CB TEMPO 0512/0517 33011G17MPS 5000 -TSRA BKN030CB TEMPO 0517/0521 30006G11MPS

4,000개 이상의 공항 관측 자료 및 예보 (METAR 및 TAF 보고).

지도상에서 검색 가능한 기상관측소가 노란 점과 빨간 점으로 표시되어 있습니다.

기상관측소 명을 보려면 표시 위로 마우스를 이동하세요.

날씨 관측과 예보를 보려면 클릭하세요.

지도 변경 : 확대하려면 엑스 표시가 있는 녹색 버튼, 축소하려면 빼기 표시가 있는 녹색 버튼, 다음 페이지의 지도를 보려면 녹색 화살표를 클릭하세요.


METAR-TAF: